createdAt,value
2022-09-22T00:04:58.512Z,26.6605
2022-09-22T00:20:00.357Z,26.8716
2022-09-22T00:35:02.193Z,27.3235
2022-09-22T00:50:04.037Z,27.4857
2022-09-22T01:05:06.074Z,27.2195
2022-09-22T01:20:08.240Z,27.3365
2022-09-22T01:35:10.425Z,27.3885
2022-09-22T01:50:12.494Z,27.9865
2022-09-22T02:05:14.605Z,27.8175
2022-09-22T02:20:16.799Z,27.3792
2022-09-22T02:35:18.727Z,27.3792
2022-09-22T02:50:20.747Z,27.2393
2022-09-22T03:05:22.633Z,26.7131
2022-09-22T03:20:24.497Z,26.7577
2022-09-22T03:35:26.349Z,26.3652
2022-09-22T03:50:28.183Z,27.1545
2022-09-22T04:05:30.025Z,26.6184
2022-09-22T04:20:31.857Z,25.2924
2022-09-22T04:35:33.679Z,26.6085
2022-09-22T04:50:35.541Z,26.7125
2022-09-22T05:05:37.415Z,26.2445
2022-09-22T05:20:39.254Z,26.2835
2022-09-22T05:35:41.088Z,26.5825
2022-09-22T05:50:42.905Z,26.8289
2022-09-22T06:05:44.698Z,25.7474
2022-09-22T06:20:46.549Z,25.6205
2022-09-22T06:35:48.411Z,26.0074
2022-09-22T06:50:50.232Z,25.0906
2022-09-22T07:05:52.081Z,26.3937
2022-09-22T07:20:53.929Z,26.3776
2022-09-22T07:35:55.778Z,25.9356
2022-09-22T07:50:57.605Z,25.9455
2022-09-22T08:06:03.862Z,25.9715
2022-09-22T08:21:07.757Z,26.3126
2022-09-22T08:36:09.583Z,25.1488
2022-09-22T08:51:11.440Z,24.5415
2022-09-22T09:06:13.294Z,25.0578
2022-09-22T09:21:15.133Z,25.5227
2022-09-22T09:51:18.762Z,25.2726
2022-09-22T10:06:20.615Z,25.7468
2022-09-22T10:21:22.520Z,25.0225
2022-09-22T10:36:24.368Z,25.1649
2022-09-22T10:51:26.195Z,24.7848
2022-09-22T11:06:28.010Z,25.0349
2022-09-22T11:21:29.876Z,24.0927
2022-09-22T11:36:31.707Z,23.6959
2022-09-22T11:51:33.563Z,23.6309
2022-09-22T12:06:35.389Z,23.2861
2022-09-22T12:21:37.268Z,22.347
2022-09-22T12:36:39.090Z,22.4733
2022-09-22T12:51:40.946Z,22.0604
2022-09-22T13:06:42.811Z,21.2315
2022-09-22T13:21:44.655Z,20.1915
2022-09-22T13:36:46.507Z,19.9835
2022-09-22T13:51:48.342Z,20.7536
2022-09-22T14:06:50.163Z,20.1785
2022-09-22T14:21:52.017Z,19.9284
2022-09-22T14:36:53.887Z,20.2466
2022-09-22T14:51:55.732Z,20.2918
2022-09-22T15:06:57.361Z,19.8275
2022-09-22T15:21:59.184Z,20.1327
2022-09-22T15:37:01.070Z,19.8826
2022-09-22T15:52:03.132Z,19.6226
2022-09-22T16:07:04.977Z,19.8987
2022-09-22T16:22:06.797Z,20.0058
2022-09-22T16:37:08.616Z,20.0937
2022-09-22T16:52:10.444Z,20.0386
2022-09-22T17:07:12.254Z,20.4218
2022-09-22T17:22:14.076Z,20.3797
2022-09-22T17:37:15.901Z,20.7827
2022-09-22T17:52:17.745Z,21.8648
2022-09-22T18:07:19.552Z,22.8237
2022-09-22T18:22:21.391Z,22.8014
2022-09-22T18:37:23.219Z,22.6262
2022-09-22T18:52:25.046Z,23.0973
2022-09-22T19:07:26.897Z,24.0723
2022-09-22T19:22:28.729Z,25.3141
2022-09-22T19:37:30.541Z,26.5169
2022-09-22T19:52:32.887Z,27.2616
2022-09-22T20:07:34.739Z,28.0546
2022-09-22T20:22:36.572Z,27.8305
2022-09-22T20:37:38.420Z,28.7535
2022-09-22T20:52:40.259Z,28.7442
2022-09-22T21:07:42.083Z,28.8092
2022-09-22T21:22:43.927Z,29.7873
2022-09-22T21:37:45.782Z,29.3911
2022-09-22T21:52:47.609Z,29.5211
2022-09-22T22:07:49.431Z,29.3261
2022-09-22T22:22:51.283Z,26.9762
2022-09-22T22:37:53.115Z,29.3391
2022-09-22T22:52:54.969Z,29.5019
2022-09-22T23:07:56.822Z,30.3042
2022-09-22T23:22:58.645Z,30.4311
2022-09-22T23:38:00.515Z,30.5741
2022-09-22T23:53:02.375Z,30.5871
